sensor_id;sensor_type;location;lat;lon;timestamp;temperature;humidity
18446;DHT22;9352;50.888;4.466;2022-11-25T00:00:08;11.90;99.90
18446;DHT22;9352;50.888;4.466;2022-11-25T00:02:35;11.90;99.90
18446;DHT22;9352;50.888;4.466;2022-11-25T00:05:08;11.90;99.90
18446;DHT22;9352;50.888;4.466;2022-11-25T00:07:35;12.00;99.90
18446;DHT22;9352;50.888;4.466;2022-11-25T00:10:01;12.00;99.90
18446;DHT22;9352;50.888;4.466;2022-11-25T00:12:28;12.00;99.90
18446;DHT22;9352;50.888;4.466;2022-11-25T00:14:57;12.00;99.90
18446;DHT22;9352;50.888;4.466;2022-11-25T00:17:23;12.00;99.90
18446;DHT22;9352;50.888;4.466;2022-11-25T00:19:50;12.00;99.90
18446;DHT22;9352;50.888;4.466;2022-11-25T00:22:17;12.00;99.90
18446;DHT22;9352;50.888;4.466;2022-11-25T00:24:44;12.00;99.90
18446;DHT22;9352;50.888;4.466;2022-11-25T00:27:11;12.00;99.90
18446;DHT22;9352;50.888;4.466;2022-11-25T00:29:38;12.00;99.90
18446;DHT22;9352;50.888;4.466;2022-11-25T00:32:06;11.90;99.90
18446;DHT22;9352;50.888;4.466;2022-11-25T00:34:33;11.90;99.90
18446;DHT22;9352;50.888;4.466;2022-11-25T00:37:00;11.80;99.90
18446;DHT22;9352;50.888;4.466;2022-11-25T00:39:27;11.70;99.90
18446;DHT22;9352;50.888;4.466;2022-11-25T00:41:53;11.70;99.90
18446;DHT22;9352;50.888;4.466;2022-11-25T00:44:38;11.60;99.90
18446;DHT22;9352;50.888;4.466;2022-11-25T00:47:08;11.50;99.90
18446;DHT22;9352;50.888;4.466;2022-11-25T00:49:35;11.20;99.90
18446;DHT22;9352;50.888;4.466;2022-11-25T00:52:03;11.00;99.90
18446;DHT22;9352;50.888;4.466;2022-11-25T00:54:30;10.90;99.90
18446;DHT22;9352;50.888;4.466;2022-11-25T00:56:57;10.70;99.90
18446;DHT22;9352;50.888;4.466;2022-11-25T00:59:24;10.50;99.90
18446;DHT22;9352;50.888;4.466;2022-11-25T01:01:51;10.40;99.90
18446;DHT22;9352;50.888;4.466;2022-11-25T01:04:19;10.30;99.90
18446;DHT22;9352;50.888;4.466;2022-11-25T01:06:46;10.20;99.90
18446;DHT22;9352;50.888;4.466;2022-11-25T01:09:13;10.10;99.90
18446;DHT22;9352;50.888;4.466;2022-11-25T01:11:40;10.10;99.90
18446;DHT22;9352;50.888;4.466;2022-11-25T01:14:07;10.00;99.90
18446;DHT22;9352;50.888;4.466;2022-11-25T01:16:34;9.90;99.90
18446;DHT22;9352;50.888;4.466;2022-11-25T01:19:02;9.90;99.90
18446;DHT22;9352;50.888;4.466;2022-11-25T01:21:32;9.80;99.90
18446;DHT22;9352;50.888;4.466;2022-11-25T01:24:01;9.80;99.90
18446;DHT22;9352;50.888;4.466;2022-11-25T01:26:28;9.70;99.90
18446;DHT22;9352;50.888;4.466;2022-11-25T01:28:57;9.70;99.90
18446;DHT22;9352;50.888;4.466;2022-11-25T01:31:26;9.60;99.90
18446;DHT22;9352;50.888;4.466;2022-11-25T01:33:55;9.60;99.90
18446;DHT22;9352;50.888;4.466;2022-11-25T01:36:23;9.60;99.90
18446;DHT22;9352;50.888;4.466;2022-11-25T01:38:53;9.60;99.90
18446;DHT22;9352;50.888;4.466;2022-11-25T01:41:21;9.60;99.90
18446;DHT22;9352;50.888;4.466;2022-11-25T01:44:08;9.50;99.90
18446;DHT22;9352;50.888;4.466;2022-11-25T01:49:29;9.50;99.90
18446;DHT22;9352;50.888;4.466;2022-11-25T01:52:02;9.50;99.90
18446;DHT22;9352;50.888;4.466;2022-11-25T01:54:37;9.40;99.90
18446;DHT22;9352;50.888;4.466;2022-11-25T01:57:08;9.40;99.90
18446;DHT22;9352;50.888;4.466;2022-11-25T01:59:39;9.40;99.90
18446;DHT22;9352;50.888;4.466;2022-11-25T02:02:07;9.40;99.90
18446;DHT22;9352;50.888;4.466;2022-11-25T02:04:35;9.40;99.90
18446;DHT22;9352;50.888;4.466;2022-11-25T02:07:08;9.30;99.90
18446;DHT22;9352;50.888;4.466;2022-11-25T02:09:39;9.30;99.90
18446;DHT22;9352;50.888;4.466;2022-11-25T02:12:07;9.30;99.90
18446;DHT22;9352;50.888;4.466;2022-11-25T02:14:34;9.30;99.90
18446;DHT22;9352;50.888;4.466;2022-11-25T02:17:01;9.20;99.90
18446;DHT22;9352;50.888;4.466;2022-11-25T02:19:38;9.20;99.90
18446;DHT22;9352;50.888;4.466;2022-11-25T02:22:14;9.20;99.90
18446;DHT22;9352;50.888;4.466;2022-11-25T02:24:44;9.20;99.90
18446;DHT22;9352;50.888;4.466;2022-11-25T02:27:13;9.20;99.90
18446;DHT22;9352;50.888;4.466;2022-11-25T02:29:42;9.20;99.90
18446;DHT22;9352;50.888;4.466;2022-11-25T02:32:09;9.20;99.90
18446;DHT22;9352;50.888;4.466;2022-11-25T02:34:45;9.20;99.90
18446;DHT22;9352;50.888;4.466;2022-11-25T02:37:13;9.20;99.90
18446;DHT22;9352;50.888;4.466;2022-11-25T02:39:40;9.20;99.90
18446;DHT22;9352;50.888;4.466;2022-11-25T02:42:08;9.20;99.90
18446;DHT22;9352;50.888;4.466;2022-11-25T02:44:36;9.10;99.90
18446;DHT22;9352;50.888;4.466;2022-11-25T02:47:03;9.10;99.90
18446;DHT22;9352;50.888;4.466;2022-11-25T02:49:30;9.20;99.90
18446;DHT22;9352;50.888;4.466;2022-11-25T02:51:57;9.10;99.90
18446;DHT22;9352;50.888;4.466;2022-11-25T02:54:23;9.10;99.90
18446;DHT22;9352;50.888;4.466;2022-11-25T02:56:50;9.10;99.90
18446;DHT22;9352;50.888;4.466;2022-11-25T02:59:17;9.10;99.90
18446;DHT22;9352;50.888;4.466;2022-11-25T03:01:46;9.10;99.90
18446;DHT22;9352;50.888;4.466;2022-11-25T03:04:13;9.00;99.90
18446;DHT22;9352;50.888;4.466;2022-11-25T03:06:39;9.00;99.90
18446;DHT22;9352;50.888;4.466;2022-11-25T03:09:07;8.90;99.90
18446;DHT22;9352;50.888;4.466;2022-11-25T03:11:34;8.80;99.90
18446;DHT22;9352;50.888;4.466;2022-11-25T03:14:18;8.80;99.90
18446;DHT22;9352;50.888;4.466;2022-11-25T03:16:46;8.70;99.90
18446;DHT22;9352;50.888;4.466;2022-11-25T03:19:13;8.70;99.90
18446;DHT22;9352;50.888;4.466;2022-11-25T03:21:40;8.70;99.90
18446;DHT22;9352;50.888;4.466;2022-11-25T03:24:07;8.70;99.90
18446;DHT22;9352;50.888;4.466;2022-11-25T03:26:34;8.60;99.90
18446;DHT22;9352;50.888;4.466;2022-11-25T03:29:00;8.60;99.90
18446;DHT22;9352;50.888;4.466;2022-11-25T03:31:27;8.60;99.90
18446;DHT22;9352;50.888;4.466;2022-11-25T03:33:55;8.50;99.90
18446;DHT22;9352;50.888;4.466;2022-11-25T03:36:23;8.50;99.90
18446;DHT22;9352;50.888;4.466;2022-11-25T03:38:49;8.50;99.90
18446;DHT22;9352;50.888;4.466;2022-11-25T03:41:16;8.50;99.90
18446;DHT22;9352;50.888;4.466;2022-11-25T03:43:43;8.50;99.90
18446;DHT22;9352;50.888;4.466;2022-11-25T03:46:10;8.50;99.90
18446;DHT22;9352;50.888;4.466;2022-11-25T03:48:37;8.40;99.90
18446;DHT22;9352;50.888;4.466;2022-11-25T03:51:05;8.40;99.90
18446;DHT22;9352;50.888;4.466;2022-11-25T03:53:32;8.40;99.90
18446;DHT22;9352;50.888;4.466;2022-11-25T03:55:59;8.40;99.90
18446;DHT22;9352;50.888;4.466;2022-11-25T03:58:26;8.40;99.90
18446;DHT22;9352;50.888;4.466;2022-11-25T04:00:52;8.40;99.90
18446;DHT22;9352;50.888;4.466;2022-11-25T04:03:19;8.40;99.90
18446;DHT22;9352;50.888;4.466;2022-11-25T04:05:46;8.40;99.90
18446;DHT22;9352;50.888;4.466;2022-11-25T04:08:14;8.40;99.90
18446;DHT22;9352;50.888;4.466;2022-11-25T04:10:41;8.30;99.90
18446;DHT22;9352;50.888;4.466;2022-11-25T04:13:08;8.40;99.90
18446;DHT22;9352;50.888;4.466;2022-11-25T04:15:34;8.40;99.90
18446;DHT22;9352;50.888;4.466;2022-11-25T04:18:01;8.40;99.90
18446;DHT22;9352;50.888;4.466;2022-11-25T04:20:27;8.40;99.90
18446;DHT22;9352;50.888;4.466;2022-11-25T04:22:54;8.40;99.90
18446;DHT22;9352;50.888;4.466;2022-11-25T04:25:22;8.40;99.90
18446;DHT22;9352;50.888;4.466;2022-11-25T04:27:50;8.40;99.90
18446;DHT22;9352;50.888;4.466;2022-11-25T04:30:17;8.50;99.90
18446;DHT22;9352;50.888;4.466;2022-11-25T04:32:44;8.60;99.90
18446;DHT22;9352;50.888;4.466;2022-11-25T04:35:11;8.60;99.90
18446;DHT22;9352;50.888;4.466;2022-11-25T04:37:38;8.60;99.90
18446;DHT22;9352;50.888;4.466;2022-11-25T04:40:06;8.60;99.90
18446;DHT22;9352;50.888;4.466;2022-11-25T04:42:35;8.60;99.90
18446;DHT22;9352;50.888;4.466;2022-11-25T04:45:05;8.60;99.90
18446;DHT22;9352;50.888;4.466;2022-11-25T04:47:33;8.70;99.90
18446;DHT22;9352;50.888;4.466;2022-11-25T04:50:00;8.70;99.90
18446;DHT22;9352;50.888;4.466;2022-11-25T04:52:27;8.80;99.90
18446;DHT22;9352;50.888;4.466;2022-11-25T04:54:54;8.90;99.90
18446;DHT22;9352;50.888;4.466;2022-11-25T04:57:21;8.90;99.90
18446;DHT22;9352;50.888;4.466;2022-11-25T04:59:49;8.90;99.90
18446;DHT22;9352;50.888;4.466;2022-11-25T05:02:17;9.00;99.90
18446;DHT22;9352;50.888;4.466;2022-11-25T05:04:46;9.00;99.90
18446;DHT22;9352;50.888;4.466;2022-11-25T05:07:15;9.00;99.90
18446;DHT22;9352;50.888;4.466;2022-11-25T05:09:42;9.00;99.90
18446;DHT22;9352;50.888;4.466;2022-11-25T05:12:12;9.10;99.90
18446;DHT22;9352;50.888;4.466;2022-11-25T05:14:38;9.10;99.90
18446;DHT22;9352;50.888;4.466;2022-11-25T05:17:09;9.10;99.90
18446;DHT22;9352;50.888;4.466;2022-11-25T05:19:38;9.10;99.90
18446;DHT22;9352;50.888;4.466;2022-11-25T05:22:04;9.10;99.90
18446;DHT22;9352;50.888;4.466;2022-11-25T05:24:31;9.00;99.90
18446;DHT22;9352;50.888;4.466;2022-11-25T05:26:58;9.00;99.90
18446;DHT22;9352;50.888;4.466;2022-11-25T05:29:25;8.90;99.90
18446;DHT22;9352;50.888;4.466;2022-11-25T05:31:52;8.90;99.90
18446;DHT22;9352;50.888;4.466;2022-11-25T05:34:20;8.80;99.90
18446;DHT22;9352;50.888;4.466;2022-11-25T05:36:47;8.70;99.90
18446;DHT22;9352;50.888;4.466;2022-11-25T05:39:14;8.70;99.90
18446;DHT22;9352;50.888;4.466;2022-11-25T05:41:41;8.70;99.90
18446;DHT22;9352;50.888;4.466;2022-11-25T05:44:08;8.70;99.90
18446;DHT22;9352;50.888;4.466;2022-11-25T05:46:35;8.70;99.90
18446;DHT22;9352;50.888;4.466;2022-11-25T05:49:01;8.60;99.90
18446;DHT22;9352;50.888;4.466;2022-11-25T05:51:30;8.60;99.90
18446;DHT22;9352;50.888;4.466;2022-11-25T05:53:57;8.60;99.90
18446;DHT22;9352;50.888;4.466;2022-11-25T05:56:24;8.60;99.90
18446;DHT22;9352;50.888;4.466;2022-11-25T05:58:50;8.50;99.90
18446;DHT22;9352;50.888;4.466;2022-11-25T06:01:19;8.60;99.90
18446;DHT22;9352;50.888;4.466;2022-11-25T06:03:46;8.60;99.90
18446;DHT22;9352;50.888;4.466;2022-11-25T06:06:13;8.50;99.90
18446;DHT22;9352;50.888;4.466;2022-11-25T06:08:42;8.60;99.90
18446;DHT22;9352;50.888;4.466;2022-11-25T06:11:11;8.50;99.90
18446;DHT22;9352;50.888;4.466;2022-11-25T06:13:38;8.50;99.90
18446;DHT22;9352;50.888;4.466;2022-11-25T06:16:19;8.60;99.90
18446;DHT22;9352;50.888;4.466;2022-11-25T06:18:48;8.50;99.90
18446;DHT22;9352;50.888;4.466;2022-11-25T06:21:16;8.50;99.90
18446;DHT22;9352;50.888;4.466;2022-11-25T06:23:44;8.50;99.90
18446;DHT22;9352;50.888;4.466;2022-11-25T06:26:13;8.50;99.90
18446;DHT22;9352;50.888;4.466;2022-11-25T06:28:40;8.50;99.90
18446;DHT22;9352;50.888;4.466;2022-11-25T06:31:08;8.50;99.90
18446;DHT22;9352;50.888;4.466;2022-11-25T06:33:35;8.50;99.90
18446;DHT22;9352;50.888;4.466;2022-11-25T06:36:04;8.50;99.90
18446;DHT22;9352;50.888;4.466;2022-11-25T06:38:31;8.50;99.90
18446;DHT22;9352;50.888;4.466;2022-11-25T06:41:00;8.50;99.90
18446;DHT22;9352;50.888;4.466;2022-11-25T06:43:27;8.40;99.90
18446;DHT22;9352;50.888;4.466;2022-11-25T06:45:54;8.40;99.90
18446;DHT22;9352;50.888;4.466;2022-11-25T06:48:21;8.40;99.90
18446;DHT22;9352;50.888;4.466;2022-11-25T06:50:55;8.40;99.90
18446;DHT22;9352;50.888;4.466;2022-11-25T06:53:22;8.40;99.90
18446;DHT22;9352;50.888;4.466;2022-11-25T06:55:55;8.40;99.90
18446;DHT22;9352;50.888;4.466;2022-11-25T06:58:28;8.40;99.90
18446;DHT22;9352;50.888;4.466;2022-11-25T07:00:59;8.40;99.90
18446;DHT22;9352;50.888;4.466;2022-11-25T07:03:26;8.40;99.90
18446;DHT22;9352;50.888;4.466;2022-11-25T07:05:55;8.40;99.90
18446;DHT22;9352;50.888;4.466;2022-11-25T07:08:22;8.40;99.90
18446;DHT22;9352;50.888;4.466;2022-11-25T07:10:49;8.40;99.90
18446;DHT22;9352;50.888;4.466;2022-11-25T07:13:16;8.50;99.90
18446;DHT22;9352;50.888;4.466;2022-11-25T07:15:45;8.40;99.90
18446;DHT22;9352;50.888;4.466;2022-11-25T07:18:11;8.40;99.90
18446;DHT22;9352;50.888;4.466;2022-11-25T07:20:38;8.40;99.90
18446;DHT22;9352;50.888;4.466;2022-11-25T07:23:05;8.40;99.90
18446;DHT22;9352;50.888;4.466;2022-11-25T07:25:33;8.50;99.90
18446;DHT22;9352;50.888;4.466;2022-11-25T07:28:00;8.50;99.90
18446;DHT22;9352;50.888;4.466;2022-11-25T07:30:27;8.50;99.90
18446;DHT22;9352;50.888;4.466;2022-11-25T07:32:55;8.50;99.90
18446;DHT22;9352;50.888;4.466;2022-11-25T07:35:22;8.50;99.90
18446;DHT22;9352;50.888;4.466;2022-11-25T07:37:49;8.50;99.90
18446;DHT22;9352;50.888;4.466;2022-11-25T07:40:17;8.50;99.90
18446;DHT22;9352;50.888;4.466;2022-11-25T07:42:44;8.50;99.90
18446;DHT22;9352;50.888;4.466;2022-11-25T07:45:11;8.50;99.90
18446;DHT22;9352;50.888;4.466;2022-11-25T07:47:38;8.60;99.90
18446;DHT22;9352;50.888;4.466;2022-11-25T07:50:07;8.60;99.90
18446;DHT22;9352;50.888;4.466;2022-11-25T07:52:37;8.60;99.90
18446;DHT22;9352;50.888;4.466;2022-11-25T07:55:04;8.60;99.90
18446;DHT22;9352;50.888;4.466;2022-11-25T07:57:32;8.60;99.90
18446;DHT22;9352;50.888;4.466;2022-11-25T07:59:58;8.70;99.90
18446;DHT22;9352;50.888;4.466;2022-11-25T08:02:25;8.70;99.90
18446;DHT22;9352;50.888;4.466;2022-11-25T08:04:52;8.70;99.90
18446;DHT22;9352;50.888;4.466;2022-11-25T08:07:20;8.70;99.90
18446;DHT22;9352;50.888;4.466;2022-11-25T08:09:47;8.80;99.90
18446;DHT22;9352;50.888;4.466;2022-11-25T08:12:16;8.80;99.90
18446;DHT22;9352;50.888;4.466;2022-11-25T08:14:42;8.80;99.90
18446;DHT22;9352;50.888;4.466;2022-11-25T08:17:09;8.90;99.90
18446;DHT22;9352;50.888;4.466;2022-11-25T08:19:36;8.90;99.90
18446;DHT22;9352;50.888;4.466;2022-11-25T08:22:05;8.90;99.90
18446;DHT22;9352;50.888;4.466;2022-11-25T08:24:33;9.00;99.90
18446;DHT22;9352;50.888;4.466;2022-11-25T08:27:00;9.10;99.90
18446;DHT22;9352;50.888;4.466;2022-11-25T08:29:27;9.10;99.90
18446;DHT22;9352;50.888;4.466;2022-11-25T08:31:53;9.20;99.90
18446;DHT22;9352;50.888;4.466;2022-11-25T08:34:22;9.30;99.90
18446;DHT22;9352;50.888;4.466;2022-11-25T08:36:49;9.40;99.90
18446;DHT22;9352;50.888;4.466;2022-11-25T08:39:17;9.50;99.90
18446;DHT22;9352;50.888;4.466;2022-11-25T08:41:46;9.60;99.90
18446;DHT22;9352;50.888;4.466;2022-11-25T08:44:13;9.60;99.90
18446;DHT22;9352;50.888;4.466;2022-11-25T08:46:41;9.60;99.90
18446;DHT22;9352;50.888;4.466;2022-11-25T08:49:09;9.60;99.90
18446;DHT22;9352;50.888;4.466;2022-11-25T08:51:37;9.60;99.90
18446;DHT22;9352;50.888;4.466;2022-11-25T08:54:05;9.50;99.90
18446;DHT22;9352;50.888;4.466;2022-11-25T08:56:32;9.50;99.90
18446;DHT22;9352;50.888;4.466;2022-11-25T08:59:01;9.40;99.90
18446;DHT22;9352;50.888;4.466;2022-11-25T09:01:28;9.30;99.90
18446;DHT22;9352;50.888;4.466;2022-11-25T09:03:56;9.30;99.90
18446;DHT22;9352;50.888;4.466;2022-11-25T09:06:23;9.20;99.90
18446;DHT22;9352;50.888;4.466;2022-11-25T09:08:54;9.20;99.90
18446;DHT22;9352;50.888;4.466;2022-11-25T09:11:21;9.20;99.90
18446;DHT22;9352;50.888;4.466;2022-11-25T09:13:48;9.20;99.90
18446;DHT22;9352;50.888;4.466;2022-11-25T09:16:16;9.20;99.90
18446;DHT22;9352;50.888;4.466;2022-11-25T09:18:43;9.20;99.90
18446;DHT22;9352;50.888;4.466;2022-11-25T09:21:12;9.20;99.90
18446;DHT22;9352;50.888;4.466;2022-11-25T09:23:39;9.30;99.90
18446;DHT22;9352;50.888;4.466;2022-11-25T09:26:06;9.30;99.90
18446;DHT22;9352;50.888;4.466;2022-11-25T09:28:34;9.30;99.90
18446;DHT22;9352;50.888;4.466;2022-11-25T09:31:06;9.30;99.90
18446;DHT22;9352;50.888;4.466;2022-11-25T09:33:34;9.30;99.90
18446;DHT22;9352;50.888;4.466;2022-11-25T09:36:01;9.40;99.90
18446;DHT22;9352;50.888;4.466;2022-11-25T09:38:28;9.40;99.90
18446;DHT22;9352;50.888;4.466;2022-11-25T09:41:00;9.40;99.90
18446;DHT22;9352;50.888;4.466;2022-11-25T09:43:36;9.50;99.90
18446;DHT22;9352;50.888;4.466;2022-11-25T09:46:38;9.40;99.90
18446;DHT22;9352;50.888;4.466;2022-11-25T09:49:28;9.40;99.90
18446;DHT22;9352;50.888;4.466;2022-11-25T09:52:02;9.50;99.90
18446;DHT22;9352;50.888;4.466;2022-11-25T09:54:34;9.60;99.90
18446;DHT22;9352;50.888;4.466;2022-11-25T09:57:08;9.60;99.90
18446;DHT22;9352;50.888;4.466;2022-11-25T09:59:46;9.60;99.90
18446;DHT22;9352;50.888;4.466;2022-11-25T10:02:21;9.70;99.90
18446;DHT22;9352;50.888;4.466;2022-11-25T10:04:57;9.70;99.90
18446;DHT22;9352;50.888;4.466;2022-11-25T10:07:32;9.80;99.90
18446;DHT22;9352;50.888;4.466;2022-11-25T10:10:02;9.80;99.90
18446;DHT22;9352;50.888;4.466;2022-11-25T10:12:33;9.90;99.90
18446;DHT22;9352;50.888;4.466;2022-11-25T10:15:03;9.90;99.90
18446;DHT22;9352;50.888;4.466;2022-11-25T10:17:36;9.90;99.90
18446;DHT22;9352;50.888;4.466;2022-11-25T10:20:13;10.00;99.90
18446;DHT22;9352;50.888;4.466;2022-11-25T10:22:43;10.00;99.90
18446;DHT22;9352;50.888;4.466;2022-11-25T10:25:14;10.10;99.90
18446;DHT22;9352;50.888;4.466;2022-11-25T10:27:43;10.10;99.90
18446;DHT22;9352;50.888;4.466;2022-11-25T10:30:15;10.20;99.90
18446;DHT22;9352;50.888;4.466;2022-11-25T10:32:46;10.20;99.90
18446;DHT22;9352;50.888;4.466;2022-11-25T10:35:21;10.30;99.90
18446;DHT22;9352;50.888;4.466;2022-11-25T10:37:51;10.40;99.90
18446;DHT22;9352;50.888;4.466;2022-11-25T10:40:20;10.60;99.90
18446;DHT22;9352;50.888;4.466;2022-11-25T10:42:48;10.70;99.90
18446;DHT22;9352;50.888;4.466;2022-11-25T10:45:15;10.80;99.90
18446;DHT22;9352;50.888;4.466;2022-11-25T10:48:03;10.90;99.90
18446;DHT22;9352;50.888;4.466;2022-11-25T10:50:40;11.10;99.90
18446;DHT22;9352;50.888;4.466;2022-11-25T10:53:16;11.10;99.90
18446;DHT22;9352;50.888;4.466;2022-11-25T10:55:57;11.10;99.90
18446;DHT22;9352;50.888;4.466;2022-11-25T10:58:30;11.00;99.90
18446;DHT22;9352;50.888;4.466;2022-11-25T11:01:13;11.00;99.90
18446;DHT22;9352;50.888;4.466;2022-11-25T11:03:42;11.00;99.90
18446;DHT22;9352;50.888;4.466;2022-11-25T11:06:34;11.00;99.90
18446;DHT22;9352;50.888;4.466;2022-11-25T11:09:02;10.90;99.90
18446;DHT22;9352;50.888;4.466;2022-11-25T11:11:29;10.90;99.90
18446;DHT22;9352;50.888;4.466;2022-11-25T11:14:11;10.90;99.90
18446;DHT22;9352;50.888;4.466;2022-11-25T11:16:41;10.90;99.90
18446;DHT22;9352;50.888;4.466;2022-11-25T11:19:24;10.90;99.90
18446;DHT22;9352;50.888;4.466;2022-11-25T11:21:55;11.00;99.90
18446;DHT22;9352;50.888;4.466;2022-11-25T11:24:25;11.00;99.90
18446;DHT22;9352;50.888;4.466;2022-11-25T11:27:04;11.00;99.90
18446;DHT22;9352;50.888;4.466;2022-11-25T11:29:31;11.00;99.90
18446;DHT22;9352;50.888;4.466;2022-11-25T11:31:59;11.10;99.90
18446;DHT22;9352;50.888;4.466;2022-11-25T11:34:43;11.10;99.90
18446;DHT22;9352;50.888;4.466;2022-11-25T11:37:23;11.10;99.90
18446;DHT22;9352;50.888;4.466;2022-11-25T11:40:02;11.10;99.90
18446;DHT22;9352;50.888;4.466;2022-11-25T11:42:40;11.10;99.90
18446;DHT22;9352;50.888;4.466;2022-11-25T11:45:27;11.20;99.90
18446;DHT22;9352;50.888;4.466;2022-11-25T11:48:03;11.20;99.90
18446;DHT22;9352;50.888;4.466;2022-11-25T11:50:39;11.20;99.90
18446;DHT22;9352;50.888;4.466;2022-11-25T11:53:16;11.20;99.90
18446;DHT22;9352;50.888;4.466;2022-11-25T11:55:53;11.20;99.90
18446;DHT22;9352;50.888;4.466;2022-11-25T11:58:34;11.20;99.90
18446;DHT22;9352;50.888;4.466;2022-11-25T12:01:13;11.30;99.90
18446;DHT22;9352;50.888;4.466;2022-11-25T12:03:54;11.30;99.90
18446;DHT22;9352;50.888;4.466;2022-11-25T12:06:22;11.40;99.90
18446;DHT22;9352;50.888;4.466;2022-11-25T12:08:54;11.40;99.90
18446;DHT22;9352;50.888;4.466;2022-11-25T12:11:26;11.40;99.90
18446;DHT22;9352;50.888;4.466;2022-11-25T12:13:59;11.40;99.90
18446;DHT22;9352;50.888;4.466;2022-11-25T12:16:33;11.50;99.90
18446;DHT22;9352;50.888;4.466;2022-11-25T12:19:07;11.60;99.90
18446;DHT22;9352;50.888;4.466;2022-11-25T12:21:43;11.60;99.90
18446;DHT22;9352;50.888;4.466;2022-11-25T12:24:20;11.60;99.90
18446;DHT22;9352;50.888;4.466;2022-11-25T12:26:52;11.50;99.90
18446;DHT22;9352;50.888;4.466;2022-11-25T12:29:26;11.50;99.90
18446;DHT22;9352;50.888;4.466;2022-11-25T12:32:00;11.50;99.90
18446;DHT22;9352;50.888;4.466;2022-11-25T12:34:33;11.50;99.90
18446;DHT22;9352;50.888;4.466;2022-11-25T12:37:06;11.50;99.90
18446;DHT22;9352;50.888;4.466;2022-11-25T12:39:38;11.40;99.90
18446;DHT22;9352;50.888;4.466;2022-11-25T12:42:13;11.40;99.90
18446;DHT22;9352;50.888;4.466;2022-11-25T12:44:50;11.40;99.90
18446;DHT22;9352;50.888;4.466;2022-11-25T12:47:18;11.40;99.90
18446;DHT22;9352;50.888;4.466;2022-11-25T12:49:47;11.50;99.90
18446;DHT22;9352;50.888;4.466;2022-11-25T12:52:29;11.50;99.90
18446;DHT22;9352;50.888;4.466;2022-11-25T12:55:08;11.60;99.90
18446;DHT22;9352;50.888;4.466;2022-11-25T12:58:21;11.60;99.90
18446;DHT22;9352;50.888;4.466;2022-11-25T13:01:20;11.60;99.90
18446;DHT22;9352;50.888;4.466;2022-11-25T13:07:24;11.60;99.90
18446;DHT22;9352;50.888;4.466;2022-11-25T13:10:19;11.60;99.90
18446;DHT22;9352;50.888;4.466;2022-11-25T13:13:01;11.60;99.90
18446;DHT22;9352;50.888;4.466;2022-11-25T13:15:40;11.70;99.90
18446;DHT22;9352;50.888;4.466;2022-11-25T13:18:10;11.80;99.90
18446;DHT22;9352;50.888;4.466;2022-11-25T13:20:43;11.80;99.90
18446;DHT22;9352;50.888;4.466;2022-11-25T13:23:40;12.00;99.90
18446;DHT22;9352;50.888;4.466;2022-11-25T13:26:36;12.10;99.90
18446;DHT22;9352;50.888;4.466;2022-11-25T13:39:04;12.30;99.90
18446;DHT22;9352;50.888;4.466;2022-11-25T13:41:36;12.30;99.90
18446;DHT22;9352;50.888;4.466;2022-11-25T13:44:17;12.30;99.90
18446;DHT22;9352;50.888;4.466;2022-11-25T13:46:46;12.30;99.90
18446;DHT22;9352;50.888;4.466;2022-11-25T13:49:26;12.40;99.90
18446;DHT22;9352;50.888;4.466;2022-11-25T13:51:56;12.40;99.90
18446;DHT22;9352;50.888;4.466;2022-11-25T13:54:30;12.30;99.90
18446;DHT22;9352;50.888;4.466;2022-11-25T13:57:13;12.20;99.90
18446;DHT22;9352;50.888;4.466;2022-11-25T13:59:52;12.20;99.90
18446;DHT22;9352;50.888;4.466;2022-11-25T14:02:35;12.20;99.90
18446;DHT22;9352;50.888;4.466;2022-11-25T14:07:55;12.10;99.90
18446;DHT22;9352;50.888;4.466;2022-11-25T14:10:42;12.10;99.90
18446;DHT22;9352;50.888;4.466;2022-11-25T14:13:30;12.20;99.90
18446;DHT22;9352;50.888;4.466;2022-11-25T14:16:10;12.20;99.90
18446;DHT22;9352;50.888;4.466;2022-11-25T14:18:58;12.10;99.90
18446;DHT22;9352;50.888;4.466;2022-11-25T14:21:52;12.10;99.90
18446;DHT22;9352;50.888;4.466;2022-11-25T14:24:28;12.00;99.90
18446;DHT22;9352;50.888;4.466;2022-11-25T14:26:57;11.90;99.90
18446;DHT22;9352;50.888;4.466;2022-11-25T14:29:29;11.80;99.90
18446;DHT22;9352;50.888;4.466;2022-11-25T14:32:02;11.70;99.90
18446;DHT22;9352;50.888;4.466;2022-11-25T14:34:32;11.70;99.90
18446;DHT22;9352;50.888;4.466;2022-11-25T14:37:08;11.70;99.90
18446;DHT22;9352;50.888;4.466;2022-11-25T14:39:40;11.60;99.90
18446;DHT22;9352;50.888;4.466;2022-11-25T14:42:12;11.60;99.90
18446;DHT22;9352;50.888;4.466;2022-11-25T14:44:46;11.60;99.90
18446;DHT22;9352;50.888;4.466;2022-11-25T14:47:13;11.50;99.90
18446;DHT22;9352;50.888;4.466;2022-11-25T14:49:45;11.40;99.90
18446;DHT22;9352;50.888;4.466;2022-11-25T14:52:18;11.40;99.90
18446;DHT22;9352;50.888;4.466;2022-11-25T14:54:47;11.30;99.90
18446;DHT22;9352;50.888;4.466;2022-11-25T14:57:18;11.30;99.90
18446;DHT22;9352;50.888;4.466;2022-11-25T14:59:48;11.30;99.90
18446;DHT22;9352;50.888;4.466;2022-11-25T15:02:25;11.30;99.90
18446;DHT22;9352;50.888;4.466;2022-11-25T15:04:59;11.20;99.90
18446;DHT22;9352;50.888;4.466;2022-11-25T15:07:26;11.20;99.90
18446;DHT22;9352;50.888;4.466;2022-11-25T15:09:54;11.10;99.90
18446;DHT22;9352;50.888;4.466;2022-11-25T15:12:21;11.10;99.90
18446;DHT22;9352;50.888;4.466;2022-11-25T15:14:52;11.00;99.90
18446;DHT22;9352;50.888;4.466;2022-11-25T15:17:25;11.00;99.90
18446;DHT22;9352;50.888;4.466;2022-11-25T15:19:54;10.90;99.90
18446;DHT22;9352;50.888;4.466;2022-11-25T15:22:23;10.90;99.90
18446;DHT22;9352;50.888;4.466;2022-11-25T15:24:51;10.80;99.90
18446;DHT22;9352;50.888;4.466;2022-11-25T15:27:20;10.80;99.90
18446;DHT22;9352;50.888;4.466;2022-11-25T15:29:48;10.70;99.90
18446;DHT22;9352;50.888;4.466;2022-11-25T15:32:19;10.70;99.90
18446;DHT22;9352;50.888;4.466;2022-11-25T15:34:48;10.60;99.90
18446;DHT22;9352;50.888;4.466;2022-11-25T15:37:16;10.50;99.90
18446;DHT22;9352;50.888;4.466;2022-11-25T15:39:43;10.50;99.90
18446;DHT22;9352;50.888;4.466;2022-11-25T15:42:16;10.50;99.90
18446;DHT22;9352;50.888;4.466;2022-11-25T15:44:47;10.50;99.90
18446;DHT22;9352;50.888;4.466;2022-11-25T15:47:21;10.40;99.90
18446;DHT22;9352;50.888;4.466;2022-11-25T15:49:56;10.40;99.90
18446;DHT22;9352;50.888;4.466;2022-11-25T15:52:25;10.30;99.90
18446;DHT22;9352;50.888;4.466;2022-11-25T15:54:56;10.30;99.90
18446;DHT22;9352;50.888;4.466;2022-11-25T15:57:27;10.20;99.90
18446;DHT22;9352;50.888;4.466;2022-11-25T16:00:14;10.20;99.90
18446;DHT22;9352;50.888;4.466;2022-11-25T16:02:53;10.10;99.90
18446;DHT22;9352;50.888;4.466;2022-11-25T16:05:30;10.10;99.90
18446;DHT22;9352;50.888;4.466;2022-11-25T16:10:50;10.10;99.90
18446;DHT22;9352;50.888;4.466;2022-11-25T16:13:31;10.00;99.90
18446;DHT22;9352;50.888;4.466;2022-11-25T16:16:06;10.00;99.90
18446;DHT22;9352;50.888;4.466;2022-11-25T16:18:37;10.00;99.90
18446;DHT22;9352;50.888;4.466;2022-11-25T16:21:08;10.00;99.90
18446;DHT22;9352;50.888;4.466;2022-11-25T16:23:39;9.90;99.90
18446;DHT22;9352;50.888;4.466;2022-11-25T16:26:15;9.90;99.90
18446;DHT22;9352;50.888;4.466;2022-11-25T16:28:50;9.90;99.90
18446;DHT22;9352;50.888;4.466;2022-11-25T16:31:17;9.90;99.90
18446;DHT22;9352;50.888;4.466;2022-11-25T16:33:45;9.90;99.90
18446;DHT22;9352;50.888;4.466;2022-11-25T16:36:12;9.80;99.90
18446;DHT22;9352;50.888;4.466;2022-11-25T16:38:39;9.80;99.90